| Date | Time | Temp. (oF) | Dew Point (oF) | Rel. Hum. (%) | Press. (in.) | Wind Dir. | Wind Speed (mph) | Hourly Rainfall (in.) |
|
|---|---|---|---|---|---|---|---|---|---|
| 1 | 06/07 | 00:00 | 61 | 52 | 74 | 29.99 | WNW | 1 | 0.00 |
| 2 | 06/06 | 23:00 | 61 | 50 | 68 | 29.98 | NNW | 2 | 0.00 |
| 3 | 06/06 | 22:00 | 63 | 51 | 65 | 29.97 | NW | 2 | 0.00 |
| 4 | 06/06 | 21:00 | 64 | 50 | 62 | 29.95 | NW | 3 | 0.00 |
| 5 | 06/06 | 20:00 | 65 | 51 | 61 | 29.94 | N | 2 | 0.00 |
| 6 | 06/06 | 19:00 | 67 | 51 | 58 | 29.92 | W | 5 | 0.00 |
| 7 | 06/06 | 18:00 | 68 | 51 | 55 | 29.89 | NNW | 3 | 0.00 |
| 8 | 06/06 | 17:00 | 70 | 51 | 53 | 29.89 | NW | 5 | 0.00 |
| 9 | 06/06 | 16:00 | 67 | 51 | 58 | 29.88 | WNW | 4 | 0.00 |
| 10 | 06/06 | 15:00 | 70 | 52 | 54 | 29.87 | N | 5 | 0.00 |
| 11 | 06/06 | 14:00 | 69 | 55 | 63 | 29.86 | NNE | 4 | 0.00 |
| 12 | 06/06 | 13:00 | 68 | 51 | 56 | 29.87 | NNW | 8 | 0.00 |
| 13 | 06/06 | 12:00 | 67 | 49 | 54 | 29.87 | ENE | 7 | 0.00 |
| 14 | 06/06 | 11:00 | 65 | 51 | 61 | 29.86 | NNE | 7 | 0.00 |
| 15 | 06/06 | 10:00 | 64 | 53 | 68 | 29.84 | N | 6 | 0.00 |
| 16 | 06/06 | 09:00 | 61 | 53 | 77 | 29.83 | ESE | 5 | 0.00 |
| 17 | 06/06 | 08:00 | 60 | 54 | 81 | 29.81 | NE | 5 | 0.00 |
| 18 | 06/06 | 07:00 | 58 | 58 | 100 | 29.80 | N | 1 | 0.00 |
| 19 | 06/06 | 06:00 | 56 | 55 | 100 | 29.78 | NNE | 1 | 0.00 |
| 20 | 06/06 | 05:00 | 56 | 55 | 100 | 29.75 | NNE | 2 | 0.00 |
| 21 | 06/06 | 04:00 | 56 | 55 | 100 | 29.74 | S | 1 | 0.00 |
| 22 | 06/06 | 03:00 | 55 | 54 | 100 | 29.73 | S | 1 | 0.00 |
| 23 | 06/06 | 02:00 | 56 | 54 | 95 | 29.72 | S | 1 | 0.00 |
| 24 | 06/06 | 01:00 | 57 | 54 | 93 | 29.72 | S | 1 | 0.00 |